Time;durP1;ratioP1;P1;durP2;ratioP2;P2;SDS_P1;SDS_P2;PMS_P1;PMS_P2;Temp;Humidity;BMP_temperature;BMP_pressure;BME280_temperature;BME280_humidity;BME280_pressure;Samples;Min_cycle;Max_cycle;Signal;HPM_P1;HPM_P2
2022/01/10 00:02:23;;;;;;;51.85;27.23;;;;;;;-0.94;100.00;99506.91;5074809;28;20086;-76
2022/01/10 00:04:52;;;;;;;55.00;29.08;;;;;;;-0.81;100.00;99510.06;5074076;28;20072;-76
2022/01/10 00:07:20;;;;;;;52.90;27.88;;;;;;;-1.00;100.00;99499.19;5074837;28;20045;-75
2022/01/10 00:09:48;;;;;;;55.30;27.40;;;;;;;-0.84;100.00;99504.91;5074131;28;20041;-76
2022/01/10 00:12:16;;;;;;;54.10;27.67;;;;;;;-0.82;100.00;99505.72;5073282;28;20486;-76
2022/01/10 00:14:45;;;;;;;56.25;27.90;;;;;;;-0.86;100.00;99507.56;5073236;28;20045;-77
2022/01/10 00:17:14;;;;;;;54.65;27.20;;;;;;;-0.91;100.00;99501.56;5074211;28;20123;-76
2022/01/10 00:19:42;;;;;;;56.88;28.90;;;;;;;-0.90;100.00;99503.28;5074303;28;20486;-74
2022/01/10 00:22:11;;;;;;;54.45;29.08;;;;;;;-0.80;100.00;99510.00;5073927;28;20047;-75
2022/01/10 00:24:40;;;;;;;56.08;27.60;;;;;;;-0.84;100.00;99508.38;5074211;28;20515;-74
2022/01/10 00:27:09;;;;;;;54.80;28.65;;;;;;;-0.84;100.00;99511.00;5073879;28;20044;-75
2022/01/10 00:29:37;;;;;;;54.55;28.33;;;;;;;-0.83;100.00;99506.63;5074146;28;20053;-75
2022/01/10 00:32:06;;;;;;;55.90;28.55;;;;;;;-0.99;100.00;99501.75;5073764;28;20040;-75
2022/01/10 00:34:35;;;;;;;59.13;28.38;;;;;;;-0.99;100.00;99508.75;5074210;28;20051;-74
2022/01/10 00:37:04;;;;;;;57.70;28.92;;;;;;;-0.96;100.00;99511.31;5073664;28;20885;-75
2022/01/10 00:39:32;;;;;;;53.28;28.00;;;;;;;-0.90;100.00;99513.75;5073686;28;20401;-74
2022/01/10 00:42:00;;;;;;;57.22;29.38;;;;;;;-0.80;100.00;99510.00;5073594;28;20040;-75
2022/01/10 00:44:31;;;;;;;57.00;29.45;;;;;;;-0.82;100.00;99511.81;5073995;28;20040;-74
2022/01/10 00:46:59;;;;;;;55.80;29.13;;;;;;;-0.80;100.00;99519.63;5073589;28;20071;-74
2022/01/10 00:49:28;;;;;;;54.10;28.38;;;;;;;-0.96;100.00;99520.03;5073749;28;20048;-73
2022/01/10 00:51:57;;;;;;;61.40;29.38;;;;;;;-1.00;100.00;99525.38;5073427;28;20049;-74
2022/01/10 00:54:25;;;;;;;59.78;30.35;;;;;;;-1.08;100.00;99535.16;5073469;28;20045;-75
2022/01/10 00:56:54;;;;;;;54.88;28.20;;;;;;;-0.98;100.00;99526.19;5073140;28;20045;-74
2022/01/10 00:59:22;;;;;;;58.42;30.73;;;;;;;-0.84;100.00;99529.34;5073658;28;20040;-74
2022/01/10 01:01:50;;;;;;;57.30;30.00;;;;;;;-0.83;100.00;99531.03;5073388;28;20064;-72
2022/01/10 01:04:18;;;;;;;55.65;29.25;;;;;;;-0.84;100.00;99523.25;5073255;28;20115;-74
2022/01/10 01:06:48;;;;;;;57.38;29.05;;;;;;;-0.80;100.00;99535.34;5073101;28;20539;-78
2022/01/10 01:09:23;;;;;;;55.92;28.90;;;;;;;-0.91;100.00;99528.63;5073132;28;20444;-73
2022/01/10 01:12:15;;;;;;;59.55;29.55;;;;;;;-1.03;100.00;99528.06;5072914;28;20048;-74
2022/01/10 01:14:54;;;;;;;56.08;29.35;;;;;;;-0.91;100.00;99541.72;5073266;28;20037;-75
2022/01/10 01:17:46;;;;;;;60.33;29.25;;;;;;;-0.94;100.00;99535.69;5073523;28;20037;-74
2022/01/10 01:25:43;;;;;;;58.08;29.10;;;;;;;-0.95;100.00;99531.38;5073203;28;20469;-75
2022/01/10 01:28:11;;;;;;;53.83;27.52;;;;;;;-0.92;100.00;99534.75;5072780;28;20412;-75
2022/01/10 01:30:41;;;;;;;58.25;28.65;;;;;;;-0.98;100.00;99534.03;5073259;28;20393;-75
2022/01/10 01:33:10;;;;;;;56.10;27.00;;;;;;;-1.03;100.00;99539.41;5072736;28;20466;-76
2022/01/10 01:35:38;;;;;;;54.90;27.98;;;;;;;-1.09;100.00;99533.44;5073246;28;20053;-76
2022/01/10 01:38:07;;;;;;;60.47;28.88;;;;;;;-1.10;100.00;99536.97;5072751;28;20048;-76
2022/01/10 01:40:41;;;;;;;52.60;27.08;;;;;;;-1.16;100.00;99532.72;5073144;28;20110;-76
2022/01/10 01:43:11;;;;;;;57.75;29.63;;;;;;;-1.18;100.00;99542.38;5072715;28;20291;-75
2022/01/10 01:45:42;;;;;;;58.30;29.85;;;;;;;-1.17;100.00;99541.47;5072978;28;20135;-75
2022/01/10 01:48:11;;;;;;;61.30;30.63;;;;;;;-1.02;100.00;99542.88;5072449;28;20051;-74
2022/01/10 01:50:40;;;;;;;54.97;29.08;;;;;;;-1.00;100.00;99549.78;5073235;28;20128;-74
2022/01/10 01:53:09;;;;;;;54.88;28.98;;;;;;;-0.74;100.00;99541.28;5072364;28;20066;-74
2022/01/10 01:55:38;;;;;;;60.58;29.67;;;;;;;-0.83;100.00;99551.13;5072663;28;20094;-72
2022/01/10 01:58:07;;;;;;;59.13;29.90;;;;;;;-0.93;100.00;99555.75;5072303;28;20040;-73
2022/01/10 02:00:36;;;;;;;59.15;29.65;;;;;;;-1.03;100.00;99551.63;5072802;28;20484;-73
2022/01/10 02:03:05;;;;;;;57.83;29.35;;;;;;;-1.04;100.00;99544.69;5072552;28;20462;-73
2022/01/10 02:05:33;;;;;;;58.25;28.88;;;;;;;-0.85;100.00;99547.72;5072704;28;20054;-74
2022/01/10 02:08:01;;;;;;;56.40;29.20;;;;;;;-0.80;100.00;99543.19;5071584;28;20048;-76
2022/01/10 02:10:30;;;;;;;56.95;29.08;;;;;;;-0.63;100.00;99541.88;5072886;28;20470;-75
2022/01/10 02:12:58;;;;;;;57.03;29.20;;;;;;;-0.50;100.00;99538.91;5072427;28;20041;-75
2022/01/10 02:15:33;;;;;;;57.63;29.30;;;;;;;-0.52;100.00;99545.97;5072722;28;20036;-75
2022/01/10 02:18:03;;;;;;;57.50;29.33;;;;;;;-0.60;100.00;99549.63;5072211;28;20119;-75
2022/01/10 02:20:34;;;;;;;58.85;29.85;;;;;;;-0.71;100.00;99549.06;5072780;28;20048;-75
2022/01/10 02:23:02;;;;;;;57.88;29.75;;;;;;;-0.70;100.00;99542.91;5072235;28;20444;-75
2022/01/10 02:25:31;;;;;;;58.33;29.65;;;;;;;-0.62;100.00;99540.97;5072691;28;20484;-75
2022/01/10 02:27:59;;;;;;;60.97;30.50;;;;;;;-0.71;100.00;99541.19;5072480;28;20040;-75
2022/01/10 02:30:28;;;;;;;56.70;28.63;;;;;;;-0.77;100.00;99549.22;5072730;28;20123;-75
2022/01/10 02:33:00;;;;;;;58.88;29.50;;;;;;;-0.78;100.00;99538.78;5072037;28;20048;-76
2022/01/10 02:35:32;;;;;;;61.17;29.67;;;;;;;-0.74;100.00;99541.28;5072755;28;20098;-75
2022/01/10 02:38:02;;;;;;;61.33;30.58;;;;;;;-0.63;100.00;99548.88;5074501;28;20094;-77
2022/01/10 02:40:32;;;;;;;58.60;28.05;;;;;;;-0.38;100.00;99543.84;5076413;28;20090;-76
2022/01/10 02:43:01;;;;;;;59.00;29.20;;;;;;;-0.49;100.00;99551.13;5075844;28;20050;-76
2022/01/10 02:45:29;;;;;;;58.75;29.67;;;;;;;-0.56;100.00;99557.44;5076168;28;20508;-75
2022/01/10 02:47:57;;;;;;;55.58;28.00;;;;;;;-0.64;100.00;99553.25;5075569;28;20052;-75
2022/01/10 02:50:26;;;;;;;56.28;29.33;;;;;;;-0.56;100.00;99552.19;5075774;28;20132;-75
2022/01/10 02:52:54;;;;;;;60.92;30.08;;;;;;;-0.66;100.00;99549.81;5075897;28;20123;-77
2022/01/10 02:55:24;;;;;;;58.78;30.23;;;;;;;-0.56;100.00;99546.97;5075969;28;20043;-74
2022/01/10 02:57:52;;;;;;;58.42;29.00;;;;;;;-0.61;100.00;99550.53;5075978;28;20068;-73
2022/01/10 03:00:25;;;;;;;63.70;29.67;;;;;;;-0.68;100.00;99556.81;5075708;28;20390;-75
2022/01/10 03:02:54;;;;;;;57.53;30.13;;;;;;;-0.52;100.00;99562.53;5075977;28;20424;-74
2022/01/10 03:05:25;;;;;;;56.90;29.45;;;;;;;-0.48;100.00;99556.34;5075806;28;20079;-72
2022/01/10 03:07:55;;;;;;;59.42;29.85;;;;;;;-0.52;100.00;99561.69;5075809;28;20044;-73
2022/01/10 03:10:25;;;;;;;58.67;28.75;;;;;;;-0.50;100.00;99552.88;5075642;28;20044;-75
2022/01/10 03:12:53;;;;;;;56.45;30.58;;;;;;;-0.62;100.00;99561.91;5075407;28;20098;-73
2022/01/10 03:15:21;;;;;;;60.75;31.25;;;;;;;-0.52;100.00;99562.53;5075716;28;20045;-74
2022/01/10 03:17:50;;;;;;;59.17;30.10;;;;;;;-0.50;100.00;99559.88;5075696;28;20452;-74
2022/01/10 03:20:18;;;;;;;54.95;28.10;;;;;;;-0.43;100.00;99566.69;5074948;28;20045;-73
2022/01/10 03:22:49;;;;;;;60.00;29.58;;;;;;;-0.49;100.00;99559.84;5075535;28;20051;-72
2022/01/10 03:25:17;;;;;;;56.00;28.50;;;;;;;-0.40;100.00;99569.22;5074859;28;20178;-73
2022/01/10 03:27:47;;;;;;;58.40;29.70;;;;;;;-0.52;100.00;99573.03;5075100;28;20048;-73
2022/01/10 03:30:16;;;;;;;57.05;29.52;;;;;;;-0.53;100.00;99575.69;5074810;28;20041;-74
2022/01/10 03:32:46;;;;;;;58.22;29.58;;;;;;;-0.60;100.00;99565.34;5075403;28;20063;-74
2022/01/10 03:35:15;;;;;;;54.90;29.55;;;;;;;-0.52;100.00;99577.41;5074934;28;20478;-74
2022/01/10 03:37:44;;;;;;;55.63;28.48;;;;;;;-0.46;100.00;99580.72;5075297;28;20139;-74
2022/01/10 03:40:12;;;;;;;54.33;28.60;;;;;;;-0.51;100.00;99573.88;5074631;28;20048;-76
2022/01/10 03:42:40;;;;;;;54.90;27.67;;;;;;;-0.45;100.00;99571.13;5075109;28;20044;-76
2022/01/10 03:45:11;;;;;;;51.47;27.02;;;;;;;-0.51;100.00;99582.59;5074763;28;20478;-74
2022/01/10 03:47:39;;;;;;;51.45;26.77;;;;;;;-0.64;100.00;99584.69;5075169;28;20040;-73
2022/01/10 03:50:08;;;;;;;56.88;28.65;;;;;;;-0.60;100.00;99591.56;5074360;28;20044;-74
2022/01/10 03:52:36;;;;;;;58.63;28.98;;;;;;;-0.64;100.00;99589.91;5074633;28;20045;-74
2022/01/10 03:55:05;;;;;;;56.42;29.38;;;;;;;-0.68;100.00;99597.88;5074205;28;20052;-75
2022/01/10 03:57:34;;;;;;;54.55;28.25;;;;;;;-0.74;100.00;99596.28;5074847;28;20045;-74
2022/01/10 04:00:03;;;;;;;54.78;27.90;;;;;;;-0.75;100.00;99610.28;5074464;28;20033;-75
2022/01/10 04:02:33;;;;;;;57.30;29.23;;;;;;;-0.79;100.00;99606.00;5074262;28;20052;-75
2022/01/10 04:05:02;;;;;;;54.42;28.63;;;;;;;-0.80;100.00;99606.91;5074324;28;20041;-75
2022/01/10 04:07:32;;;;;;;58.58;29.75;;;;;;;-0.79;100.00;99611.22;5074978;28;20041;-75
2022/01/10 04:10:00;;;;;;;54.97;28.17;;;;;;;-0.77;100.00;99612.09;5073040;28;20386;-78
2022/01/10 04:12:28;;;;;;;55.22;28.20;;;;;;;-0.79;100.00;99610.38;5074363;28;20040;-76
2022/01/10 04:14:57;;;;;;;55.42;28.67;;;;;;;-0.79;100.00;99616.47;5074480;28;20049;-75
2022/01/10 04:17:25;;;;;;;53.85;29.27;;;;;;;-0.69;100.00;99620.59;5073959;28;20041;-76
2022/01/10 04:19:54;;;;;;;60.72;29.98;;;;;;;-0.68;100.00;99621.44;5074372;28;20044;-75
2022/01/10 04:22:22;;;;;;;55.65;28.25;;;;;;;-0.60;100.00;99622.97;5073720;28;20044;-75
2022/01/10 04:24:51;;;;;;;51.88;28.27;;;;;;;-0.38;100.00;99627.72;5074263;28;20040;-76
2022/01/10 04:27:20;;;;;;;59.25;27.85;;;;;;;-0.30;100.00;99634.44;5073934;28;20048;-74
2022/01/10 04:29:48;;;;;;;58.53;29.73;;;;;;;-0.28;100.00;99629.19;5074097;28;20041;-75
2022/01/10 04:32:16;;;;;;;54.38;29.40;;;;;;;-0.29;100.00;99632.69;5073847;28;20094;-75
2022/01/10 04:34:47;;;;;;;61.40;29.63;;;;;;;-0.23;100.00;99627.28;5074226;28;20078;-76
2022/01/10 04:37:17;;;;;;;55.22;29.20;;;;;;;0.01;100.00;99630.19;5073812;28;20037;-73
2022/01/10 04:39:45;;;;;;;56.65;29.33;;;;;;;-0.27;100.00;99637.91;5073954;28;20106;-74
2022/01/10 04:42:14;;;;;;;62.53;29.35;;;;;;;-0.39;100.00;99646.91;5073360;28;20441;-74
2022/01/10 04:44:42;;;;;;;55.55;28.98;;;;;;;-0.32;100.00;99643.25;5073799;28;20371;-75
2022/01/10 04:47:11;;;;;;;62.78;30.15;;;;;;;-0.21;100.00;99641.22;5073733;28;20071;-75
2022/01/10 04:50:02;;;;;;;61.13;30.77;;;;;;;-0.12;100.00;99643.59;5073597;28;20398;-74
2022/01/10 04:52:31;;;;;;;62.10;29.95;;;;;;;-0.37;100.00;99650.38;5072289;28;20131;-74
2022/01/10 04:55:00;;;;;;;56.15;29.80;;;;;;;-0.19;100.00;99651.66;5073846;28;20049;-72
2022/01/10 04:57:28;;;;;;;60.25;30.58;;;;;;;-0.38;100.00;99648.66;5073624;28;20045;-72
2022/01/10 04:59:56;;;;;;;59.83;29.17;;;;;;;-0.45;100.00;99652.34;5072895;28;20524;-72
2022/01/10 05:02:25;;;;;;;54.92;29.13;;;;;;;-0.50;100.00;99652.44;5073571;28;20102;-73
2022/01/10 05:04:53;;;;;;;57.40;29.25;;;;;;;-0.37;100.00;99658.25;5073290;28;20131;-73
2022/01/10 05:07:21;;;;;;;55.28;28.73;;;;;;;-0.57;100.00;99652.66;5072801;28;20052;-73
2022/01/10 05:09:51;;;;;;;59.45;30.17;;;;;;;-0.27;100.00;99662.34;5073438;28;20033;-72
2022/01/10 05:12:20;;;;;;;57.45;29.88;;;;;;;-0.16;100.00;99660.31;5072910;28;20067;-72
2022/01/10 05:14:48;;;;;;;58.30;30.45;;;;;;;-0.35;100.00;99662.53;5073334;28;20086;-73
2022/01/10 05:17:18;;;;;;;56.75;30.02;;;;;;;-0.27;100.00;99666.75;5073062;28;20390;-73
2022/01/10 05:19:47;;;;;;;57.53;30.63;;;;;;;-0.31;100.00;99663.31;5073343;28;20048;-74
2022/01/10 05:22:16;;;;;;;63.17;31.40;;;;;;;-0.20;100.00;99663.91;5072666;28;20040;-73
2022/01/10 05:24:44;;;;;;;60.67;30.50;;;;;;;-0.30;100.00;99663.28;5072800;28;20093;-73
2022/01/10 05:27:14;;;;;;;59.88;29.70;;;;;;;-0.17;100.00;99669.09;5072851;28;20044;-74
2022/01/10 05:29:42;;;;;;;60.33;30.50;;;;;;;-0.17;100.00;99662.97;5073325;28;20045;-73
2022/01/10 05:32:11;;;;;;;61.00;30.50;;;;;;;-0.12;100.00;99671.56;5072876;28;20041;-76
2022/01/10 05:34:39;;;;;;;63.22;31.58;;;;;;;-0.20;100.00;99671.75;5073206;28;20481;-75
2022/01/10 05:37:07;;;;;;;62.08;31.02;;;;;;;-0.25;100.00;99671.03;5072489;28;20049;-76
2022/01/10 05:39:35;;;;;;;57.75;30.48;;;;;;;-0.33;100.00;99672.97;5072765;28;20064;-76
2022/01/10 05:42:06;;;;;;;61.20;31.20;;;;;;;-0.18;100.00;99674.38;5073067;28;20370;-77
2022/01/10 05:44:36;;;;;;;60.35;30.80;;;;;;;-0.24;100.00;99677.13;5072651;28;20142;-77
2022/01/10 05:47:05;;;;;;;61.60;31.75;;;;;;;-0.16;100.00;99681.28;5072805;28;20441;-76
2022/01/10 05:49:35;;;;;;;59.10;30.88;;;;;;;-0.20;100.00;99684.88;5072694;28;20481;-76
2022/01/10 05:52:03;;;;;;;59.28;31.17;;;;;;;-0.33;100.00;99691.34;5072642;28;20409;-75
2022/01/10 05:54:32;;;;;;;62.22;31.05;;;;;;;-0.30;100.00;99694.72;5072546;28;20132;-75
2022/01/10 05:57:01;;;;;;;62.10;31.42;;;;;;;-0.33;100.00;99691.34;5072576;28;20094;-75
2022/01/10 05:59:31;;;;;;;63.95;32.05;;;;;;;-0.40;100.00;99690.59;5072207;28;20078;-71
2022/01/10 06:02:00;;;;;;;59.28;30.70;;;;;;;-0.47;100.00;99696.06;5072891;28;20056;-72
2022/01/10 06:04:30;;;;;;;66.55;31.05;;;;;;;-0.42;100.00;99702.03;5072520;28;20543;-72
2022/01/10 06:06:59;;;;;;;63.67;33.47;;;;;;;-0.56;100.00;99701.53;5072613;28;20094;-72
2022/01/10 06:09:27;;;;;;;67.07;33.00;;;;;;;-0.62;100.00;99702.50;5072146;28;20040;-72
2022/01/10 06:11:55;;;;;;;67.93;33.42;;;;;;;-0.55;100.00;99703.25;5073471;28;20047;-76
2022/01/10 06:14:23;;;;;;;64.82;32.40;;;;;;;-0.47;100.00;99702.16;5076205;28;20041;-74
2022/01/10 06:16:51;;;;;;;69.53;34.20;;;;;;;-0.39;100.00;99700.19;5076251;28;20094;-74
2022/01/10 06:19:21;;;;;;;66.38;33.47;;;;;;;-0.40;100.00;99698.47;5075950;28;20106;-72
2022/01/10 06:21:49;;;;;;;71.32;32.70;;;;;;;-0.37;100.00;99703.66;5076109;28;20037;-73
2022/01/10 06:24:17;;;;;;;60.08;31.50;;;;;;;-0.68;100.00;99706.13;5076440;28;20044;-73
2022/01/10 06:26:49;;;;;;;64.80;32.53;;;;;;;-0.46;100.00;99709.13;5076361;28;20058;-74
2022/01/10 06:29:17;;;;;;;64.00;32.67;;;;;;;-0.54;100.00;99723.28;5075961;28;20040;-74
2022/01/10 06:31:45;;;;;;;61.63;30.75;;;;;;;-0.66;100.00;99732.31;5076217;28;20051;-74
2022/01/10 06:34:14;;;;;;;66.13;31.50;;;;;;;-0.56;100.00;99722.47;5076344;28;20048;-74
2022/01/10 06:36:45;;;;;;;63.97;32.05;;;;;;;-0.74;100.00;99735.09;5076457;28;20052;-72
2022/01/10 06:39:13;;;;;;;62.90;32.10;;;;;;;-0.67;100.00;99730.59;5075999;28;20048;-74
2022/01/10 06:41:41;;;;;;;58.97;30.20;;;;;;;-0.57;100.00;99737.34;5075860;28;20044;-74
2022/01/10 06:44:09;;;;;;;59.45;31.25;;;;;;;-0.42;100.00;99742.19;5075764;28;20539;-73
2022/01/10 06:46:38;;;;;;;63.25;31.10;;;;;;;-0.50;100.00;99748.50;5076120;28;20044;-73
2022/01/10 06:49:06;;;;;;;63.75;32.20;;;;;;;-0.48;100.00;99744.09;5076029;28;20051;-73
2022/01/10 06:51:34;;;;;;;73.35;33.42;;;;;;;-0.52;100.00;99755.56;5075483;28;20055;-73
2022/01/10 06:54:04;;;;;;;62.90;31.88;;;;;;;-0.54;100.00;99757.34;5075771;28;20039;-74
2022/01/10 06:56:32;;;;;;;68.45;32.65;;;;;;;-0.53;100.00;99756.44;5075772;28;20083;-74
2022/01/10 06:59:01;;;;;;;65.68;32.03;;;;;;;-0.45;100.00;99758.00;5076030;28;20052;-73
2022/01/10 07:01:29;;;;;;;60.80;31.90;;;;;;;-0.40;100.00;99765.75;5075864;28;20056;-73
2022/01/10 07:03:58;;;;;;;62.13;30.88;;;;;;;-0.34;100.00;99771.72;5076158;28;20396;-73
2022/01/10 07:06:28;;;;;;;57.92;30.00;;;;;;;-0.29;100.00;99779.44;5075439;28;20051;-73
2022/01/10 07:08:57;;;;;;;62.42;30.15;;;;;;;-0.32;100.00;99776.91;5075910;28;20048;-73
2022/01/10 07:11:26;;;;;;;61.22;31.02;;;;;;;-0.40;100.00;99779.69;5075715;28;20098;-72
2022/01/10 07:13:55;;;;;;;63.28;30.02;;;;;;;-0.32;100.00;99779.53;5075840;28;20064;-73
2022/01/10 07:16:23;;;;;;;58.65;30.05;;;;;;;-0.34;100.00;99782.19;5075313;28;20102;-74
2022/01/10 07:18:51;;;;;;;60.75;30.67;;;;;;;-0.22;100.00;99775.78;5075657;28;20094;-72
2022/01/10 07:21:19;;;;;;;57.42;29.23;;;;;;;-0.31;100.00;99781.25;5074994;28;20068;-72
2022/01/10 07:23:48;;;;;;;59.60;30.15;;;;;;;-0.13;100.00;99786.06;5075129;28;20041;-72
2022/01/10 07:26:16;;;;;;;63.20;32.05;;;;;;;-0.11;100.00;99792.13;5075167;28;20036;-72
2022/01/10 07:28:46;;;;;;;62.20;30.90;;;;;;;-0.16;100.00;99790.53;5075090;28;20047;-73
2022/01/10 07:31:14;;;;;;;61.38;30.80;;;;;;;-0.14;100.00;99791.34;5075360;28;20118;-72
2022/01/10 07:33:43;;;;;;;64.72;32.10;;;;;;;-0.34;100.00;99791.81;5075426;28;20102;-71
2022/01/10 07:36:11;;;;;;;64.57;31.35;;;;;;;-0.22;100.00;99802.00;5074990;28;20040;-74
2022/01/10 07:38:39;;;;;;;67.10;31.67;;;;;;;-0.28;100.00;99803.94;5075091;28;20045;-72
2022/01/10 07:41:08;;;;;;;63.80;30.90;;;;;;;-0.29;100.00;99808.28;5074133;28;20144;-71
2022/01/10 07:43:36;;;;;;;59.97;30.55;;;;;;;-0.27;100.00;99811.75;5074921;28;20045;-72
2022/01/10 07:46:07;;;;;;;65.57;31.65;;;;;;;-0.32;100.00;99810.97;5075193;28;20076;-72
2022/01/10 07:48:39;;;;;;;62.03;31.63;;;;;;;-0.36;100.00;99812.81;5075087;28;20106;-72
2022/01/10 07:51:09;;;;;;;63.20;31.75;;;;;;;-0.44;100.00;99811.28;5075028;28;20044;-71
2022/01/10 07:53:59;;;;;;;62.90;32.58;;;;;;;-0.46;100.00;99816.53;5074585;28;20055;-72
2022/01/10 07:56:27;;;;;;;64.35;31.80;;;;;;;-0.38;100.00;99816.38;5074634;28;20103;-72
2022/01/10 07:58:56;;;;;;;64.30;31.83;;;;;;;-0.45;100.00;99825.28;5074867;28;20037;-71
2022/01/10 08:01:28;;;;;;;64.68;30.58;;;;;;;-0.41;100.00;99827.78;5076926;28;20052;-71
2022/01/10 08:04:02;;;;;;;64.25;31.77;;;;;;;-0.44;100.00;99829.59;5075197;28;20102;-71
2022/01/10 08:06:50;;;;;;;62.60;29.42;;;;;;;-0.30;100.00;99828.38;5074805;28;20079;-70
2022/01/10 08:09:21;;;;;;;66.88;31.67;;;;;;;-0.28;100.00;99828.38;5074491;28;20041;-73
2022/01/10 08:12:09;;;;;;;63.30;32.75;;;;;;;-0.33;100.00;99817.97;5074466;28;20095;-72
2022/01/10 08:14:58;;;;;;;59.67;30.38;;;;;;;-0.31;100.00;99820.56;5074823;28;20048;-71
2022/01/10 08:17:27;;;;;;;66.60;31.35;;;;;;;-0.29;100.00;99821.38;5074221;28;20045;-72
2022/01/10 08:19:56;;;;;;;67.55;31.20;;;;;;;-0.25;100.00;99823.06;5074191;28;20047;-71
2022/01/10 08:22:24;;;;;;;63.72;32.80;;;;;;;-0.33;100.00;99814.50;5074266;28;20115;-71
2022/01/10 08:24:53;;;;;;;67.78;32.63;;;;;;;-0.20;100.00;99820.31;5073947;28;20044;-72
2022/01/10 08:27:21;;;;;;;59.45;31.23;;;;;;;-0.10;100.00;99822.69;5073564;28;20512;-72
2022/01/10 08:29:51;;;;;;;66.35;31.15;;;;;;;-0.05;100.00;99820.81;5074222;28;20041;-72
2022/01/10 08:32:19;;;;;;;59.63;29.70;;;;;;;0.03;100.00;99827.66;5074269;28;20045;-72
2022/01/10 08:34:49;;;;;;;66.88;31.65;;;;;;;0.00;100.00;99828.59;5072936;28;20040;-72
2022/01/10 08:37:17;;;;;;;73.70;31.75;;;;;;;0.09;100.00;99832.72;5074209;28;20070;-72
2022/01/10 08:39:49;;;;;;;64.80;32.08;;;;;;;0.08;100.00;99831.88;5073593;28;20464;-72
2022/01/10 08:42:17;;;;;;;63.20;32.30;;;;;;;0.19;100.00;99836.84;5074278;28;20119;-72
2022/01/10 08:44:46;;;;;;;66.85;32.72;;;;;;;0.15;100.00;99837.84;5073780;28;20040;-72
2022/01/10 08:47:20;;;;;;;59.72;30.25;;;;;;;0.25;100.00;99842.81;5074031;28;20048;-71
2022/01/10 08:49:50;;;;;;;61.63;29.80;;;;;;;0.26;100.00;99849.78;5073636;28;20044;-72
2022/01/10 08:52:18;;;;;;;56.67;29.10;;;;;;;0.32;100.00;99850.56;5073768;28;20048;-72
2022/01/10 08:54:47;;;;;;;56.33;29.67;;;;;;;0.38;100.00;99856.50;5073366;28;20045;-72
2022/01/10 08:57:15;;;;;;;56.67;27.73;;;;;;;0.45;100.00;99852.81;5073937;28;20051;-72
2022/01/10 08:59:44;;;;;;;59.78;28.48;;;;;;;0.41;100.00;99852.94;5073541;28;20090;-71
2022/01/10 09:02:13;;;;;;;59.78;28.33;;;;;;;0.38;100.00;99846.00;5073712;28;20064;-71
2022/01/10 09:04:42;;;;;;;60.65;30.35;;;;;;;0.40;100.00;99849.47;5073037;28;20040;-71
2022/01/10 09:07:13;;;;;;;54.22;28.13;;;;;;;0.39;100.00;99846.88;5073513;28;20092;-71
2022/01/10 09:09:42;;;;;;;56.47;28.30;;;;;;;0.57;100.00;99856.88;5073333;28;20047;-71
2022/01/10 09:12:11;;;;;;;61.38;30.05;;;;;;;0.60;100.00;99858.59;5073647;28;20119;-72
2022/01/10 09:14:40;;;;;;;60.45;30.85;;;;;;;0.68;100.00;99857.50;5073183;28;20044;-72
2022/01/10 09:17:08;;;;;;;60.40;29.38;;;;;;;0.57;100.00;99855.13;5073446;28;20033;-72
2022/01/10 09:19:37;;;;;;;55.30;28.92;;;;;;;0.74;100.00;99861.69;5072822;28;20044;-72
2022/01/10 09:22:05;;;;;;;55.28;27.23;;;;;;;0.84;100.00;99863.19;5073416;28;20045;-71
2022/01/10 09:24:46;;;;;;;55.70;28.38;;;;;;;0.80;100.00;99861.56;5073294;28;20076;-71
2022/01/10 09:27:14;;;;;;;52.03;28.33;;;;;;;0.85;100.00;99867.53;5073337;28;20048;-72
2022/01/10 09:29:45;;;;;;;50.95;26.35;;;;;;;0.93;100.00;99864.69;5073017;28;20478;-72
2022/01/10 09:32:14;;;;;;;48.38;24.77;;;;;;;1.03;100.00;99871.44;5073500;28;20071;-72
2022/01/10 09:34:42;;;;;;;55.97;26.58;;;;;;;0.94;100.00;99867.28;5073359;28;20048;-72
2022/01/10 09:37:11;;;;;;;51.58;25.95;;;;;;;1.04;100.00;99863.50;5073265;28;20409;-72
2022/01/10 09:39:39;;;;;;;50.92;24.95;;;;;;;0.95;100.00;99858.50;5072965;28;20068;-73
2022/01/10 09:42:12;;;;;;;48.78;24.27;;;;;;;1.06;100.00;99872.22;5073311;28;20386;-72
2022/01/10 09:44:41;;;;;;;46.00;24.50;;;;;;;1.10;100.00;99863.34;5072704;28;20044;-72
2022/01/10 09:47:09;;;;;;;50.05;24.85;;;;;;;1.21;100.00;99859.56;5072941;28;20044;-72
2022/01/10 09:49:37;;;;;;;43.90;24.00;;;;;;;1.20;100.00;99863.94;5072511;28;20068;-72
2022/01/10 09:52:06;;;;;;;45.58;24.27;;;;;;;1.28;100.00;99871.63;5073053;28;20094;-72
2022/01/10 09:54:34;;;;;;;46.22;23.25;;;;;;;1.30;100.00;99861.91;5072678;28;20148;-72
2022/01/10 09:57:03;;;;;;;48.53;25.45;;;;;;;1.42;100.00;99861.56;5073088;28;20068;-71
2022/01/10 09:59:33;;;;;;;44.90;22.70;;;;;;;1.33;100.00;99867.06;5072682;28;20067;-71
2022/01/10 10:02:01;;;;;;;39.78;19.40;;;;;;;1.41;100.00;99867.72;5072809;28;20401;-72
2022/01/10 10:04:29;;;;;;;42.75;22.65;;;;;;;1.48;100.00;99863.16;5072408;28;20068;-72
2022/01/10 10:06:58;;;;;;;46.95;22.60;;;;;;;1.55;100.00;99860.31;5072942;28;20098;-73
2022/01/10 10:09:27;;;;;;;40.00;20.70;;;;;;;1.59;100.00;99864.56;5072978;28;20045;-71
2022/01/10 10:11:55;;;;;;;43.22;21.38;;;;;;;1.61;100.00;99870.63;5073007;28;20396;-72
2022/01/10 10:14:24;;;;;;;44.33;21.83;;;;;;;1.65;100.00;99867.00;5072576;28;20044;-71
2022/01/10 10:16:56;;;;;;;46.10;22.27;;;;;;;1.68;100.00;99860.78;5072665;28;20049;-72
2022/01/10 10:19:27;;;;;;;44.83;20.95;;;;;;;1.75;100.00;99866.75;5072660;28;20040;-72
2022/01/10 10:21:57;;;;;;;43.20;21.75;;;;;;;1.85;100.00;99873.44;5072835;28;20047;-72
2022/01/10 10:24:26;;;;;;;40.22;19.65;;;;;;;1.83;100.00;99865.56;5073028;28;20362;-72
2022/01/10 10:26:55;;;;;;;36.10;18.90;;;;;;;1.91;100.00;99863.56;5072612;28;20044;-72
2022/01/10 10:29:28;;;;;;;36.97;17.85;;;;;;;1.94;100.00;99858.25;5072580;28;20068;-72
2022/01/10 10:32:02;;;;;;;36.75;17.23;;;;;;;1.91;100.00;99862.72;5072436;28;20472;-72
2022/01/10 10:34:32;;;;;;;40.70;18.60;;;;;;;2.03;100.00;99861.47;5072631;28;20045;-72
2022/01/10 10:37:04;;;;;;;33.85;18.77;;;;;;;2.11;100.00;99869.97;5072350;28;20052;-72
2022/01/10 10:39:34;;;;;;;36.22;18.33;;;;;;;2.04;100.00;99858.81;5072080;28;20072;-72
2022/01/10 10:42:09;;;;;;;37.72;18.38;;;;;;;2.01;100.00;99858.88;5072231;28;20040;-72
2022/01/10 10:44:37;;;;;;;34.67;17.35;;;;;;;2.07;100.00;99869.22;5072383;28;20055;-72
2022/01/10 10:47:07;;;;;;;33.17;16.80;;;;;;;2.18;100.00;99868.88;5072487;28;20094;-72
2022/01/10 10:49:42;;;;;;;32.15;17.77;;;;;;;2.15;100.00;99863.72;5070896;28;20045;-72
2022/01/10 10:52:11;;;;;;;33.45;17.77;;;;;;;2.18;100.00;99864.47;5072582;28;20045;-72
2022/01/10 10:54:41;;;;;;;30.98;16.80;;;;;;;2.31;100.00;99859.66;5072037;28;20040;-72
2022/01/10 10:57:10;;;;;;;36.53;16.73;;;;;;;2.29;100.00;99865.00;5072517;28;20444;-72
2022/01/10 10:59:43;;;;;;;36.13;17.15;;;;;;;2.24;100.00;99866.91;5075017;28;20090;-72
2022/01/10 11:02:13;;;;;;;;;;;;;;;2.18;100.00;99863.63;5077005;28;20061;-72
2022/01/10 11:04:42;;;;;;;36.88;17.52;;;;;;;2.30;100.00;99863.22;5075784;28;20469;-72
2022/01/10 11:07:12;;;;;;;34.47;17.33;;;;;;;2.38;100.00;99862.97;5075790;28;20052;-72
2022/01/10 11:10:01;;;;;;;33.85;16.90;;;;;;;2.43;100.00;99861.06;5075725;28;20060;-72
2022/01/10 11:12:31;;;;;;;31.13;16.02;;;;;;;2.48;100.00;99859.13;5075821;28;20048;-71
2022/01/10 11:15:00;;;;;;;33.80;16.77;;;;;;;2.36;100.00;99865.66;5075750;28;20049;-72
2022/01/10 11:17:32;;;;;;;32.50;15.10;;;;;;;2.38;100.00;99868.22;5075740;28;20049;-73
2022/01/10 11:20:08;;;;;;;33.58;15.93;;;;;;;2.50;100.00;99868.69;5075709;28;20123;-72
2022/01/10 11:22:39;;;;;;;30.48;16.02;;;;;;;2.51;100.00;99872.16;5075488;28;20098;-73
2022/01/10 11:25:20;;;;;;;31.98;15.63;;;;;;;2.67;100.00;99875.16;5075714;28;20037;-72
2022/01/10 11:27:50;;;;;;;28.25;12.60;;;;;;;2.72;99.94;99873.25;5075368;28;20050;-72
2022/01/10 11:30:30;;;;;;;29.27;15.88;;;;;;;2.77;100.00;99872.16;5075530;28;20047;-72